Marrakech, Morocco

3:18 PM WEST on July 30, 2016 (GMT +0100)
Menara | | Change Station

Elev 1529 ft 31.61 °N, 8.04 °W | Updated 18 minutes ago

Scattered Clouds
Scattered Clouds
106 °F
Feels Like 106 °F
N
10
Wind Variable Wind from NW

Today
High -- | Low -- °F
--% Chance of Precip.
Yesterday
High -- | Low -- °F
Precip. -- in
Pressure 29.95 in
Visibility 6.2 miles
Clouds Scattered Clouds 3300 ft
Dew Point 34 °F
Humidity 8%
Rainfall 0.00 in
Snow Depth Not available.
6:47 AM 8:29 PM
Waning Crescent, 13% visible
METAR GMMX 301400Z 32009KT 280V350 9999 SCT033 41/01 Q1014 NOSIG
Pressure 29.95 in
Visibility 6.2 miles
Clouds Scattered Clouds 3300 ft
Dew Point 34 °F
Humidity 8%
Rainfall 0.00 in
Snow Depth Not available.
6:47 AM 8:29 PM
Waning Crescent, 13% visible
METAR GMMX 301400Z 32009KT 280V350 9999 SCT033 41/01 Q1014 NOSIG

10-Day Weather Forecast

No radar image for this location.
×

Almanac

Astronomy

Jul. 30, 2016 Rise Set
Actual Time
Civil Twilight
Nautical Twilight
Astronomical Twilight
Moon
Length of Visible Light
Length of Day
Tomorrow will be .
, % of the Moon is Illuminated

Today's Extremes

Country Highs Country Lows

Community

WunderPhotos

Upload Photos

1,928,564 photos uploaded!

WunderBlog® & News

Nearby

Air Quality

  Air Quality AQ Index Pollutant
Not available.

Snow Depth

Station Depth Elevation

Earthquake Activity

City Distance Mag. Time & Date
Minimum magnitude displayed is 2.5.

Coastal Water Temperatures

Place Temperature

Stations

Nearby Weather Stations

Station Location Temp. Windchill Dew Point Humidity Wind Precip. Elev Updated Type